createdAt,value
2023-02-19T00:01:25.318Z,13.50
2023-02-19T00:03:54.803Z,13.82
2023-02-19T00:06:24.043Z,13.85
2023-02-19T00:08:51.007Z,10.27
2023-02-19T00:11:20.442Z,12.80
2023-02-19T00:13:49.610Z,10.68
2023-02-19T00:16:33.501Z,14.95
2023-02-19T00:19:01.971Z,14.98
2023-02-19T00:21:29.821Z,16.23
2023-02-19T00:23:59.423Z,14.68
2023-02-19T00:28:54.493Z,14.48
2023-02-19T00:31:24.051Z,15.50
2023-02-19T00:33:53.351Z,14.82
2023-02-19T00:36:20.756Z,19.98
2023-02-19T00:38:48.185Z,17.20
2023-02-19T00:41:19.159Z,17.77
2023-02-19T00:43:48.809Z,16.60
2023-02-19T00:48:46.140Z,19.20
2023-02-19T00:51:13.118Z,18.50
2023-02-19T00:53:39.999Z,23.98
2023-02-19T00:56:06.955Z,22.17
2023-02-19T00:58:33.703Z,21.85
2023-02-19T01:01:00.650Z,23.75
2023-02-19T01:03:27.462Z,24.08
2023-02-19T01:05:54.646Z,23.42
2023-02-19T01:08:21.910Z,27.40
2023-02-19T01:10:48.958Z,26.05
2023-02-19T01:13:15.835Z,28.10
2023-02-19T01:15:42.483Z,27.42
2023-02-19T01:18:09.283Z,31.23
2023-02-19T01:20:39.437Z,27.42
2023-02-19T01:23:06.292Z,35.15
2023-02-19T01:25:32.886Z,34.35
2023-02-19T01:27:59.454Z,35.25
2023-02-19T01:30:26.302Z,34.97
2023-02-19T01:32:52.901Z,38.20
2023-02-19T01:35:19.602Z,36.90
2023-02-19T01:37:46.194Z,42.05
2023-02-19T01:40:12.775Z,35.80
2023-02-19T01:42:43.909Z,34.08
2023-02-19T01:45:34.085Z,40.30
2023-02-19T01:48:23.056Z,35.92
2023-02-19T01:51:00.248Z,36.95
2023-02-19T01:53:32.119Z,40.95
2023-02-19T01:56:00.498Z,41.88
2023-02-19T01:58:32.125Z,38.83
2023-02-19T02:01:03.004Z,38.35
2023-02-19T02:03:30.923Z,43.45
2023-02-19T02:06:19.217Z,41.50
2023-02-19T02:09:04.631Z,42.90
2023-02-19T02:11:31.393Z,45.03
2023-02-19T02:13:58.790Z,43.95
2023-02-19T02:16:30.337Z,46.28
2023-02-19T02:19:20.931Z,43.67
2023-02-19T02:24:51.763Z,40.53
2023-02-19T02:27:37.117Z,44.50
2023-02-19T02:30:18.128Z,43.17
2023-02-19T02:33:23.771Z,44.03
2023-02-19T02:35:54.956Z,44.70
2023-02-19T02:38:25.445Z,54.70
2023-02-19T02:40:54.514Z,49.90
2023-02-19T02:43:21.763Z,50.42
2023-02-19T02:45:48.746Z,53.10
2023-02-19T02:48:45.161Z,55.53
2023-02-19T02:51:20.113Z,58.47
2023-02-19T02:54:37.104Z,54.08
2023-02-19T02:57:14.683Z,49.08
2023-02-19T02:59:49.205Z,50.35
2023-02-19T03:02:31.363Z,51.58
2023-02-19T03:05:41.597Z,53.33
2023-02-19T03:08:37.905Z,47.95
2023-02-19T03:11:26.593Z,53.60
2023-02-19T03:14:39.724Z,52.17
2023-02-19T03:17:40.629Z,47.58
2023-02-19T03:20:13.055Z,52.40
2023-02-19T03:22:42.096Z,54.90
2023-02-19T03:25:38.494Z,46.67
2023-02-19T03:28:09.553Z,51.17
2023-02-19T03:30:40.813Z,49.45
2023-02-19T03:33:18.778Z,46.35
2023-02-19T03:35:50.885Z,43.08
2023-02-19T03:38:23.386Z,46.28
2023-02-19T03:41:10.622Z,50.25
2023-02-19T03:44:12.854Z,46.05
2023-02-19T03:47:08.308Z,40.60
2023-02-19T03:49:49.219Z,45.92
2023-02-19T03:52:47.071Z,40.92
2023-02-19T03:55:35.681Z,39.95
2023-02-19T03:58:13.264Z,35.15
2023-02-19T04:00:49.197Z,36.17
2023-02-19T04:03:37.238Z,37.40
2023-02-19T04:06:11.589Z,32.17
2023-02-19T04:08:40.844Z,34.92
2023-02-19T04:11:09.764Z,34.13
2023-02-19T04:13:50.932Z,40.35
2023-02-19T04:16:24.223Z,39.88
2023-02-19T04:18:54.563Z,35.83
2023-02-19T04:21:22.985Z,30.95
2023-02-19T04:23:50.158Z,33.15
2023-02-19T04:26:20.077Z,27.80
2023-02-19T04:28:47.120Z,27.33
2023-02-19T04:31:14.435Z,30.48
2023-02-19T04:33:41.342Z,26.58
2023-02-19T04:36:10.890Z,26.02
2023-02-19T04:41:06.959Z,24.90
2023-02-19T04:43:33.608Z,26.77
2023-02-19T04:46:01.754Z,27.73
2023-02-19T04:48:28.887Z,32.63
2023-02-19T04:50:55.700Z,24.23
2023-02-19T04:53:22.285Z,26.58
2023-02-19T04:55:48.985Z,27.25
2023-02-19T04:58:15.519Z,28.40
2023-02-19T05:00:42.090Z,26.85
2023-02-19T05:03:08.662Z,28.75
2023-02-19T05:05:35.223Z,28.38
2023-02-19T05:08:01.788Z,24.00
2023-02-19T05:10:28.394Z,27.48
2023-02-19T05:12:57.802Z,24.48
2023-02-19T05:17:50.998Z,28.52
2023-02-19T05:20:17.698Z,26.60
2023-02-19T05:22:44.237Z,32.53
2023-02-19T05:25:10.856Z,24.00
2023-02-19T05:27:37.546Z,26.00
2023-02-19T05:30:04.432Z,23.85
2023-02-19T05:32:31.014Z,22.35
2023-02-19T05:34:57.667Z,21.60
2023-02-19T05:37:24.300Z,21.80
2023-02-19T05:39:50.895Z,22.08
2023-02-19T05:42:17.492Z,20.33
2023-02-19T05:44:44.118Z,19.20
2023-02-19T05:47:10.778Z,23.88
2023-02-19T05:49:37.566Z,17.25
2023-02-19T05:52:04.399Z,22.20
2023-02-19T05:54:31.997Z,20.35
2023-02-19T05:56:58.568Z,18.70
2023-02-19T05:59:26.416Z,20.15
2023-02-19T06:01:54.705Z,19.05
2023-02-19T06:04:21.567Z,20.52
2023-02-19T06:06:48.654Z,18.80
2023-02-19T06:09:15.264Z,19.25
2023-02-19T06:11:43.306Z,25.55
2023-02-19T06:14:12.908Z,21.85
2023-02-19T06:19:06.055Z,20.52
2023-02-19T06:21:32.707Z,22.13
2023-02-19T06:23:59.332Z,17.58
2023-02-19T06:26:26.257Z,19.10
2023-02-19T06:28:54.541Z,20.17
2023-02-19T06:31:23.108Z,19.20
2023-02-19T06:33:50.784Z,18.63
2023-02-19T06:36:19.803Z,18.13
2023-02-19T06:38:46.507Z,18.13
2023-02-19T06:41:14.225Z,16.23
2023-02-19T06:43:41.552Z,18.55
2023-02-19T06:46:08.289Z,22.45
2023-02-19T06:48:35.693Z,18.65
2023-02-19T06:51:02.548Z,19.60
2023-02-19T06:53:29.366Z,18.50
2023-02-19T06:55:57.836Z,16.63
2023-02-19T06:58:24.499Z,18.27
2023-02-19T07:00:51.199Z,16.25
2023-02-19T07:03:17.865Z,15.48
2023-02-19T07:05:44.516Z,23.95
2023-02-19T07:08:11.240Z,16.88
2023-02-19T07:10:37.812Z,16.90
2023-02-19T07:13:04.684Z,18.63
2023-02-19T07:15:31.315Z,16.10
2023-02-19T07:17:59.294Z,12.15
2023-02-19T07:20:26.069Z,5.57
2023-02-19T07:22:52.594Z,5.25
2023-02-19T07:25:19.197Z,2.17
2023-02-19T07:27:45.752Z,1.08
2023-02-19T07:30:12.882Z,1.30
2023-02-19T07:32:42.887Z,1.20
2023-02-19T07:35:09.819Z,1.00
2023-02-19T07:37:36.610Z,2.03
2023-02-19T07:40:03.611Z,2.35
2023-02-19T07:42:30.294Z,1.75
2023-02-19T07:44:58.438Z,1.90
2023-02-19T07:47:26.844Z,2.70
2023-02-19T07:49:53.405Z,2.65
2023-02-19T07:52:19.937Z,1.85
2023-02-19T07:54:46.555Z,3.00
2023-02-19T07:57:13.791Z,3.13
2023-02-19T07:59:40.544Z,1.88
2023-02-19T08:02:39.232Z,1.75
2023-02-19T08:05:06.766Z,1.53
2023-02-19T08:07:35.234Z,1.48
2023-02-19T08:10:21.469Z,1.20
2023-02-19T08:13:17.827Z,1.48
2023-02-19T08:15:44.937Z,1.88
2023-02-19T08:18:12.329Z,2.50
2023-02-19T08:20:39.047Z,2.33
2023-02-19T08:23:06.854Z,2.72
2023-02-19T08:25:33.674Z,2.80
2023-02-19T08:28:01.011Z,4.30
2023-02-19T08:30:29.467Z,2.53
2023-02-19T08:32:56.423Z,3.28
2023-02-19T08:35:23.091Z,2.33
2023-02-19T08:37:49.697Z,3.75
2023-02-19T08:40:16.715Z,3.22
2023-02-19T08:42:43.375Z,4.72
2023-02-19T08:45:10.269Z,4.63
2023-02-19T08:47:37.236Z,3.83
2023-02-19T08:50:05.529Z,3.45
2023-02-19T08:52:32.434Z,3.75
2023-02-19T08:54:59.402Z,4.60
2023-02-19T08:57:26.604Z,4.22
2023-02-19T08:59:53.280Z,6.07
2023-02-19T09:02:19.887Z,4.95
2023-02-19T09:04:46.487Z,5.57
2023-02-19T09:07:13.439Z,5.78
2023-02-19T09:09:40.556Z,4.43
2023-02-19T09:12:12.369Z,5.75
2023-02-19T09:14:39.156Z,6.40
2023-02-19T09:17:07.091Z,6.32
2023-02-19T09:19:34.516Z,5.78
2023-02-19T09:22:01.175Z,5.65
2023-02-19T09:24:27.722Z,6.75
2023-02-19T09:26:55.183Z,5.97
2023-02-19T09:29:24.553Z,6.30
2023-02-19T09:31:51.216Z,5.13
2023-02-19T09:34:17.813Z,6.22
2023-02-19T09:36:44.361Z,7.47
2023-02-19T09:39:12.571Z,7.38
2023-02-19T09:41:52.525Z,5.45
2023-02-19T09:44:34.378Z,5.95
2023-02-19T09:47:01.819Z,6.47
2023-02-19T09:49:33.751Z,5.70
2023-02-19T09:52:14.563Z,4.90
2023-02-19T09:54:42.446Z,4.53
2023-02-19T09:57:15.513Z,7.75
2023-02-19T09:59:45.720Z,6.57
2023-02-19T10:02:16.650Z,4.22
2023-02-19T10:04:45.795Z,3.47
2023-02-19T10:07:15.052Z,4.72
2023-02-19T10:09:42.037Z,3.38
2023-02-19T10:12:15.979Z,5.05
2023-02-19T10:14:48.111Z,2.65
2023-02-19T10:17:23.829Z,4.00
2023-02-19T10:19:52.326Z,3.20
2023-02-19T10:22:19.919Z,5.93
2023-02-19T10:24:51.941Z,5.22
2023-02-19T10:27:19.203Z,4.63
2023-02-19T10:29:48.923Z,4.38
2023-02-19T10:32:20.931Z,7.78
2023-02-19T10:34:47.784Z,4.97
2023-02-19T10:37:17.347Z,5.07
2023-02-19T10:42:19.369Z,4.20
2023-02-19T10:44:51.398Z,3.55
2023-02-19T10:47:22.297Z,4.75
2023-02-19T10:49:50.923Z,5.70
2023-02-19T10:52:36.733Z,3.95
2023-02-19T10:55:23.253Z,4.80
2023-02-19T10:57:50.508Z,5.63
2023-02-19T11:00:35.830Z,5.75
2023-02-19T11:03:24.267Z,7.57
2023-02-19T11:06:03.631Z,44.37
2023-02-19T11:08:34.182Z,8.68
2023-02-19T11:11:00.795Z,3.63
2023-02-19T11:13:37.953Z,5.03
2023-02-19T11:16:05.410Z,9.57
2023-02-19T11:18:33.365Z,6.03
2023-02-19T11:21:06.180Z,2.78
2023-02-19T11:23:35.700Z,4.07
2023-02-19T11:26:06.509Z,3.60
2023-02-19T11:28:38.135Z,2.85
2023-02-19T11:31:28.301Z,3.53
2023-02-19T11:34:21.098Z,3.22
2023-02-19T11:37:07.711Z,3.30
2023-02-19T11:39:34.711Z,3.17
2023-02-19T11:42:21.621Z,2.92
2023-02-19T11:45:09.742Z,2.22
2023-02-19T11:48:20.780Z,3.15
2023-02-19T11:51:05.074Z,3.83
2023-02-19T11:53:34.595Z,1.67
2023-02-19T11:56:10.266Z,2.15
2023-02-19T11:58:55.401Z,1.77
2023-02-19T12:01:29.454Z,1.40
2023-02-19T12:04:26.932Z,3.65
2023-02-19T12:07:12.169Z,1.98
2023-02-19T12:10:09.506Z,3.70
2023-02-19T12:13:07.364Z,1.65
2023-02-19T12:16:03.986Z,3.53
2023-02-19T12:18:54.812Z,1.70
2023-02-19T12:22:04.330Z,3.00
2023-02-19T12:27:21.620Z,1.33
2023-02-19T12:29:51.276Z,2.17
2023-02-19T12:35:28.136Z,1.52
2023-02-19T12:38:03.819Z,2.20
2023-02-19T12:40:43.304Z,2.10
2023-02-19T12:43:13.845Z,1.02
2023-02-19T12:45:43.134Z,2.63
2023-02-19T12:48:14.870Z,2.83
2023-02-19T12:50:43.821Z,1.10
2023-02-19T12:53:43.689Z,2.78
2023-02-19T12:56:34.400Z,2.28
2023-02-19T12:59:07.208Z,1.35
2023-02-19T13:01:44.050Z,4.45
2023-02-19T13:04:26.017Z,1.65
2023-02-19T13:07:09.120Z,1.20
2023-02-19T13:09:48.971Z,1.08
2023-02-19T13:12:23.597Z,2.10
2023-02-19T13:15:16.184Z,1.58
2023-02-19T13:17:50.475Z,1.40
2023-02-19T13:20:36.831Z,6.28
2023-02-19T13:23:41.053Z,0.82
2023-02-19T13:26:26.406Z,1.10
2023-02-19T13:28:59.450Z,2.00
2023-02-19T13:31:53.544Z,1.60
2023-02-19T13:34:41.400Z,1.67
2023-02-19T13:37:09.662Z,2.03
2023-02-19T13:39:36.407Z,1.35
2023-02-19T13:42:04.095Z,1.85
2023-02-19T13:44:34.332Z,1.52
2023-02-19T13:47:01.050Z,1.63
2023-02-19T13:49:27.545Z,1.48
2023-02-19T13:52:24.398Z,1.83
2023-02-19T13:54:51.338Z,2.28
2023-02-19T13:57:17.841Z,2.00
2023-02-19T13:59:45.274Z,3.22
2023-02-19T14:02:22.970Z,2.00
2023-02-19T14:05:04.853Z,1.80
2023-02-19T14:07:51.730Z,2.22
2023-02-19T14:10:46.079Z,1.25
2023-02-19T14:13:32.562Z,1.63
2023-02-19T14:15:59.550Z,3.33
2023-02-19T14:18:44.641Z,1.45
2023-02-19T14:21:26.568Z,1.75
2023-02-19T14:23:56.230Z,1.90
2023-02-19T14:26:25.231Z,2.22
2023-02-19T14:28:53.652Z,1.35
2023-02-19T14:31:31.185Z,5.68
2023-02-19T14:34:19.614Z,0.98
2023-02-19T14:36:52.484Z,2.28
2023-02-19T14:39:40.333Z,1.55
2023-02-19T14:42:14.202Z,1.10
2023-02-19T14:44:48.555Z,1.67
2023-02-19T14:47:19.101Z,2.92
2023-02-19T14:50:08.937Z,2.83
2023-02-19T14:52:45.746Z,1.70
2023-02-19T14:55:32.512Z,1.88
2023-02-19T14:58:01.764Z,1.42
2023-02-19T15:00:30.701Z,1.30
2023-02-19T15:02:59.754Z,2.05
2023-02-19T15:05:29.514Z,2.10
2023-02-19T15:08:02.000Z,1.90
2023-02-19T15:10:32.197Z,4.13
2023-02-19T15:13:08.248Z,2.45
2023-02-19T15:15:40.721Z,3.58
2023-02-19T15:18:13.950Z,3.35
2023-02-19T15:20:42.475Z,1.45
2023-02-19T15:23:12.231Z,2.28
2023-02-19T15:25:39.532Z,2.38
2023-02-19T15:28:24.231Z,1.42
2023-02-19T15:31:05.592Z,3.13
2023-02-19T15:33:32.477Z,3.05
2023-02-19T15:36:06.614Z,1.60
2023-02-19T15:38:34.064Z,2.63
2023-02-19T15:41:01.337Z,4.35
2023-02-19T15:43:30.615Z,2.03
2023-02-19T15:46:07.184Z,2.17
2023-02-19T15:48:43.014Z,2.05
2023-02-19T15:51:19.103Z,1.55
2023-02-19T15:53:51.244Z,3.95
2023-02-19T15:56:28.355Z,2.35
2023-02-19T15:59:00.243Z,1.60
2023-02-19T16:01:33.235Z,1.52
2023-02-19T16:04:00.444Z,2.33
2023-02-19T16:06:28.142Z,2.83
2023-02-19T16:09:01.889Z,3.80
2023-02-19T16:11:30.354Z,2.70
2023-02-19T16:14:16.802Z,3.58
2023-02-19T16:16:46.151Z,3.75
2023-02-19T16:19:13.181Z,2.80
2023-02-19T16:21:43.802Z,2.25
2023-02-19T16:24:25.883Z,3.85
2023-02-19T16:26:52.710Z,3.72
2023-02-19T16:29:20.731Z,4.82
2023-02-19T16:32:16.957Z,3.67
2023-02-19T16:34:51.627Z,4.07
2023-02-19T16:37:41.207Z,4.90
2023-02-19T16:42:36.004Z,3.72
2023-02-19T16:45:02.941Z,4.38
2023-02-19T16:47:37.152Z,7.68
2023-02-19T16:50:12.703Z,7.32
2023-02-19T16:52:57.810Z,5.97
2023-02-19T16:55:25.207Z,5.53
2023-02-19T16:57:52.051Z,7.78
2023-02-19T17:00:26.889Z,20.02
2023-02-19T17:02:59.639Z,16.35
2023-02-19T17:05:29.100Z,15.00
2023-02-19T17:07:55.796Z,13.88
2023-02-19T17:10:25.722Z,15.25
2023-02-19T17:12:55.367Z,12.32
2023-02-19T17:17:49.460Z,13.98
2023-02-19T17:20:16.086Z,11.82
2023-02-19T17:22:43.208Z,11.50
2023-02-19T17:25:10.312Z,11.93
2023-02-19T17:27:37.124Z,12.05
2023-02-19T17:30:09.924Z,17.77
2023-02-19T17:32:36.626Z,15.98
2023-02-19T17:35:03.406Z,17.10
2023-02-19T17:37:30.023Z,15.27
2023-02-19T17:39:56.615Z,13.10
2023-02-19T17:42:23.860Z,14.05
2023-02-19T17:44:51.882Z,14.18
2023-02-19T17:47:18.739Z,14.32
2023-02-19T17:49:45.466Z,17.48
2023-02-19T17:52:13.651Z,11.27
2023-02-19T17:54:40.256Z,19.33
2023-02-19T17:57:06.879Z,13.45
2023-02-19T17:59:33.492Z,12.20
2023-02-19T18:02:00.100Z,10.43
2023-02-19T18:04:26.803Z,11.02
2023-02-19T18:06:54.374Z,9.75
2023-02-19T18:09:22.361Z,17.33
2023-02-19T18:11:49.334Z,14.30
2023-02-19T18:14:16.072Z,11.65
2023-02-19T18:16:50.620Z,10.20
2023-02-19T18:19:17.711Z,9.50
2023-02-19T18:21:44.252Z,9.80
2023-02-19T18:24:10.952Z,12.05
2023-02-19T18:26:37.894Z,11.48
2023-02-19T18:29:05.484Z,8.40
2023-02-19T18:31:37.509Z,8.90
2023-02-19T18:34:05.171Z,8.25
2023-02-19T18:36:32.821Z,9.18
2023-02-19T18:38:59.482Z,10.50
2023-02-19T18:41:26.137Z,11.77
2023-02-19T18:43:52.715Z,10.73
2023-02-19T18:46:21.200Z,10.18
2023-02-19T18:48:47.936Z,12.10
2023-02-19T18:51:14.588Z,22.75
2023-02-19T18:53:42.994Z,19.10
2023-02-19T18:56:09.708Z,15.52
2023-02-19T18:58:36.329Z,15.52
2023-02-19T19:01:03.166Z,13.18
2023-02-19T19:03:30.996Z,12.35
2023-02-19T19:05:58.545Z,12.18
2023-02-19T19:08:25.325Z,12.52
2023-02-19T19:10:51.916Z,11.88
2023-02-19T19:13:18.569Z,13.43
2023-02-19T19:15:50.243Z,12.90
2023-02-19T19:18:16.921Z,15.02
2023-02-19T19:20:43.508Z,14.18
2023-02-19T19:23:10.068Z,12.93
2023-02-19T19:25:37.420Z,15.85
2023-02-19T19:28:04.199Z,13.90
2023-02-19T19:30:30.953Z,12.32
2023-02-19T19:32:58.022Z,13.38
2023-02-19T19:35:24.656Z,15.43
2023-02-19T19:37:51.452Z,16.23
2023-02-19T19:40:18.742Z,12.30
2023-02-19T19:42:46.055Z,13.77
2023-02-19T19:45:15.659Z,13.73
2023-02-19T19:47:42.536Z,13.20
2023-02-19T19:50:15.684Z,12.80
2023-02-19T19:52:42.349Z,17.13
2023-02-19T19:55:11.944Z,14.23
2023-02-19T20:00:09.052Z,19.48
2023-02-19T20:02:46.170Z,16.65
2023-02-19T20:05:13.994Z,21.83
2023-02-19T20:07:40.589Z,14.45
2023-02-19T20:10:08.180Z,18.80
2023-02-19T20:12:34.734Z,16.67
2023-02-19T20:15:01.513Z,17.77
2023-02-19T20:17:28.888Z,16.77
2023-02-19T20:19:55.618Z,15.82
2023-02-19T20:22:22.265Z,14.70
2023-02-19T20:24:53.307Z,13.25
2023-02-19T20:27:21.830Z,15.27
2023-02-19T20:29:48.819Z,14.48
2023-02-19T20:32:18.503Z,17.05
2023-02-19T20:34:45.979Z,14.63
2023-02-19T20:37:12.717Z,16.05
2023-02-19T20:39:39.329Z,14.55
2023-02-19T20:42:06.724Z,18.88
2023-02-19T20:44:34.107Z,14.02
2023-02-19T20:47:01.517Z,14.35
2023-02-19T20:49:31.029Z,13.55
2023-02-19T20:52:04.922Z,11.68
2023-02-19T20:54:34.873Z,16.85
2023-02-19T20:57:04.285Z,11.80
2023-02-19T20:59:35.225Z,11.65
2023-02-19T21:02:07.118Z,12.68
2023-02-19T21:04:38.509Z,13.02
2023-02-19T21:07:05.180Z,14.13
2023-02-19T21:09:32.160Z,13.23
2023-02-19T21:11:59.970Z,12.70
2023-02-19T21:14:26.746Z,14.63
2023-02-19T21:16:53.743Z,15.35
2023-02-19T21:19:21.697Z,13.93
2023-02-19T21:21:48.406Z,13.95
2023-02-19T21:24:15.673Z,14.13
2023-02-19T21:26:43.574Z,16.10
2023-02-19T21:29:15.829Z,12.20
2023-02-19T21:31:44.903Z,14.82
2023-02-19T21:34:13.668Z,12.18
2023-02-19T21:36:40.641Z,17.50
2023-02-19T21:39:09.490Z,15.13
2023-02-19T21:41:36.614Z,16.45
2023-02-19T21:44:03.964Z,13.45
2023-02-19T21:46:32.843Z,14.68
2023-02-19T21:49:00.026Z,12.05
2023-02-19T21:51:36.168Z,13.82
2023-02-19T21:54:04.256Z,14.80
2023-02-19T21:56:35.868Z,15.13
2023-02-19T21:59:03.467Z,14.80
2023-02-19T22:01:33.808Z,12.40
2023-02-19T22:04:00.510Z,12.57
2023-02-19T22:06:29.347Z,13.55
2023-02-19T22:08:56.585Z,13.15
2023-02-19T22:11:23.248Z,14.15
2023-02-19T22:13:50.607Z,17.48
2023-02-19T22:16:18.147Z,10.45
2023-02-19T22:18:54.068Z,12.43
2023-02-19T22:21:21.860Z,9.25
2023-02-19T22:23:50.630Z,13.38
2023-02-19T22:26:26.982Z,11.13
2023-02-19T22:28:55.258Z,12.20
2023-02-19T22:31:24.360Z,10.50
2023-02-19T22:33:51.827Z,11.38
2023-02-19T22:36:21.600Z,11.23
2023-02-19T22:38:49.225Z,12.82
2023-02-19T22:41:17.679Z,13.05
2023-02-19T22:43:45.102Z,13.18
2023-02-19T22:46:18.672Z,14.07
2023-02-19T22:48:46.168Z,13.32
2023-02-19T22:51:16.583Z,14.93
2023-02-19T22:53:47.989Z,14.82
2023-02-19T22:56:16.162Z,13.07
2023-02-19T22:58:43.531Z,14.77
2023-02-19T23:01:12.391Z,11.93
2023-02-19T23:03:53.527Z,14.00
2023-02-19T23:06:26.119Z,13.82
2023-02-19T23:08:55.248Z,12.57
2023-02-19T23:11:24.327Z,13.23
2023-02-19T23:13:51.017Z,14.32
2023-02-19T23:16:17.723Z,12.60
2023-02-19T23:18:44.792Z,12.80
2023-02-19T23:21:11.747Z,13.65
2023-02-19T23:23:43.947Z,12.93
2023-02-19T23:26:10.879Z,15.38
2023-02-19T23:28:39.623Z,15.02
2023-02-19T23:31:06.765Z,16.55
2023-02-19T23:33:33.559Z,18.08
2023-02-19T23:36:00.125Z,16.48
2023-02-19T23:38:26.781Z,20.35
2023-02-19T23:40:53.403Z,18.75
2023-02-19T23:43:21.057Z,21.05
2023-02-19T23:45:47.624Z,20.90
2023-02-19T23:48:14.210Z,21.38
2023-02-19T23:50:40.799Z,19.23
2023-02-19T23:53:07.608Z,22.55
2023-02-19T23:55:34.216Z,22.17
2023-02-19T23:58:00.859Z,20.52
